Time;durP1;ratioP1;P1;durP2;ratioP2;P2;SDS_P1;SDS_P2;PMS_P1;PMS_P2;Temp;Humidity;BMP_temperature;BMP_pressure;BME280_temperature;BME280_humidity;BME280_pressure;Samples;Min_cycle;Max_cycle;Signal;HPM_P1;HPM_P2
2023/05/02 00:01:50;;;;;;;13.68;5.43;;;10.80;99.90;;;;;;5096753;28;20043;-38
2023/05/02 00:04:17;;;;;;;15.65;4.50;;;10.70;99.90;;;;;;5097028;28;20093;-42
2023/05/02 00:06:45;;;;;;;11.57;4.53;;;10.70;99.90;;;;;;5097704;28;20055;-40
2023/05/02 00:09:11;;;;;;;12.95;4.50;;;10.70;99.90;;;;;;5097192;28;20056;-37
2023/05/02 00:11:37;;;;;;;12.90;4.50;;;10.70;99.90;;;;;;5096569;28;20048;-39
2023/05/02 00:14:02;;;;;;;13.73;4.70;;;10.60;99.90;;;;;;5078640;28;20051;-37
2023/05/02 00:16:28;;;;;;;8.77;3.35;;;10.60;99.90;;;;;;5096206;28;20069;-44
2023/05/02 00:18:54;;;;;;;11.57;3.65;;;10.60;99.90;;;;;;5078948;28;20051;-37
2023/05/02 00:21:19;;;;;;;11.48;4.35;;;10.50;99.90;;;;;;5096723;28;20049;-42
2023/05/02 00:23:45;;;;;;;10.00;4.28;;;10.50;99.90;;;;;;5093876;28;20112;-35
2023/05/02 00:26:11;;;;;;;12.48;3.80;;;10.50;99.90;;;;;;5096015;28;20059;-40
2023/05/02 00:28:36;;;;;;;11.77;3.50;;;10.50;99.90;;;;;;5096337;28;20058;-39
2023/05/02 00:31:03;;;;;;;10.43;3.63;;;10.50;99.90;;;;;;5095973;28;20109;-36
2023/05/02 00:33:29;;;;;;;12.43;4.47;;;10.50;99.90;;;;;;5096123;28;20153;-39
2023/05/02 00:35:55;;;;;;;10.25;3.63;;;10.50;99.90;;;;;;5096311;28;20687;-41
2023/05/02 00:38:20;;;;;;;8.95;3.40;;;10.50;99.90;;;;;;5096432;28;20044;-38
2023/05/02 00:40:48;;;;;;;10.88;3.63;;;10.50;99.90;;;;;;5095849;28;20052;-40
2023/05/02 00:43:14;;;;;;;11.55;4.47;;;10.50;99.90;;;;;;5095909;28;20572;-37
2023/05/02 00:45:42;;;;;;;12.90;4.60;;;10.50;99.90;;;;;;5095553;28;20044;-40
2023/05/02 00:48:09;;;;;;;8.25;3.97;;;10.40;99.90;;;;;;5095580;28;20616;-38
2023/05/02 00:50:39;;;;;;;9.05;4.90;;;10.40;99.90;;;;;;5095416;28;20048;-40
2023/05/02 00:53:06;;;;;;;11.80;4.07;;;10.30;99.90;;;;;;5095699;28;20557;-35
2023/05/02 00:55:33;;;;;;;7.93;3.67;;;10.20;99.90;;;;;;5095391;28;20500;-37
2023/05/02 00:58:03;;;;;;;8.98;4.22;;;10.20;99.90;;;;;;5095692;28;20039;-41
2023/05/02 01:01:11;;;;;;;10.77;3.88;;;10.10;99.90;;;;;;5077826;28;20040;-38
2023/05/02 01:03:55;;;;;;;6.65;3.47;;;10.20;99.90;;;;;;5032426;28;20064;-40
2023/05/02 01:07:21;;;;;;;8.93;4.00;;;10.20;99.90;;;;;;5031819;28;20076;-42
2023/05/02 01:10:08;;;;;;;9.68;3.45;;;10.20;99.90;;;;;;4953565;28;20057;-38
2023/05/02 01:12:41;;;;;;;7.82;3.47;;;10.20;99.90;;;;;;4953107;28;20142;-38
2023/05/02 01:15:19;;;;;;;9.15;3.53;;;10.20;99.90;;;;;;4952921;28;20130;-38
2023/05/02 01:17:48;;;;;;;10.85;3.53;;;10.20;99.90;;;;;;4953336;28;20070;-40
2023/05/02 01:20:19;;;;;;;7.85;3.30;;;10.30;99.90;;;;;;4937481;28;20063;-40
2023/05/02 01:22:46;;;;;;;8.40;3.33;;;10.30;99.90;;;;;;4947096;28;20062;-38
2023/05/02 01:25:32;;;;;;;8.10;2.63;;;10.30;99.90;;;;;;4934189;29;20118;-39
2023/05/02 01:28:01;;;;;;;4.82;2.85;;;10.30;99.90;;;;;;4935219;29;20530;-43
2023/05/02 01:30:29;;;;;;;7.35;3.65;;;10.30;99.90;;;;;;4936539;28;20395;-39
2023/05/02 01:32:57;;;;;;;8.20;3.30;;;10.30;99.90;;;;;;4934712;28;20165;-41
2023/05/02 01:35:25;;;;;;;10.85;3.65;;;10.30;99.90;;;;;;4950994;28;20090;-35
2023/05/02 01:37:52;;;;;;;12.10;5.18;;;10.30;99.90;;;;;;4953666;28;20062;-43
2023/05/02 01:40:21;;;;;;;12.35;5.18;;;10.20;99.90;;;;;;4962919;28;20065;-41
2023/05/02 01:42:49;;;;;;;13.38;4.80;;;10.10;99.90;;;;;;5017549;28;20472;-39
2023/05/02 01:45:16;;;;;;;19.98;6.47;;;10.00;99.90;;;;;;5094912;28;20493;-40
2023/05/02 01:47:43;;;;;;;23.85;5.47;;;9.90;99.90;;;;;;5095480;28;20051;-38
2023/05/02 01:50:12;;;;;;;17.27;5.80;;;9.80;99.90;;;;;;5093818;28;20521;-39
2023/05/02 01:52:39;;;;;;;19.73;5.72;;;9.70;99.90;;;;;;5094624;28;20066;-40
2023/05/02 01:55:12;;;;;;;20.85;5.57;;;9.60;99.90;;;;;;5095238;28;20100;-37
2023/05/02 01:57:39;;;;;;;18.83;5.73;;;9.50;99.90;;;;;;5095182;28;20100;-38
2023/05/02 02:00:08;;;;;;;17.83;5.20;;;9.50;99.90;;;;;;5095494;28;20380;-35
2023/05/02 02:02:35;;;;;;;18.15;6.10;;;9.50;99.90;;;;;;5090634;28;20056;-40
2023/05/02 02:05:04;;;;;;;20.95;6.32;;;9.40;99.90;;;;;;5093651;28;20131;-41
2023/05/02 02:07:30;;;;;;;22.48;6.30;;;9.30;99.90;;;;;;5070159;28;20350;-37
2023/05/02 02:09:56;;;;;;;17.17;5.05;;;9.30;99.90;;;;;;5094723;28;20517;-41
2023/05/02 02:12:25;;;;;;;15.63;5.30;;;9.20;99.90;;;;;;5094314;28;20048;-38
2023/05/02 02:15:30;;;;;;;18.38;5.50;;;9.20;99.90;;;;;;5094503;28;20742;-39
2023/05/02 02:18:13;;;;;;;16.75;5.15;;;9.20;99.90;;;;;;5096194;28;20050;-42
2023/05/02 02:20:42;;;;;;;18.92;5.75;;;9.20;99.90;;;;;;5094728;28;20057;-35
2023/05/02 02:23:09;;;;;;;18.05;5.40;;;9.20;99.90;;;;;;5095321;28;20055;-37
2023/05/02 02:25:36;;;;;;;18.60;5.65;;;9.20;99.90;;;;;;5094413;28;20048;-36
2023/05/02 02:28:03;;;;;;;19.13;5.50;;;9.10;99.90;;;;;;5094955;28;20568;-35
2023/05/02 02:30:28;;;;;;;19.05;5.60;;;9.10;99.90;;;;;;5093817;28;20462;-41
2023/05/02 02:32:54;;;;;;;35.75;8.00;;;9.00;99.90;;;;;;5095401;28;20057;-39
2023/05/02 02:35:20;;;;;;;28.33;6.78;;;8.80;99.90;;;;;;5094727;28;20114;-37
2023/05/02 02:38:04;;;;;;;31.63;7.10;;;8.70;99.90;;;;;;5076460;28;20545;-39
2023/05/02 02:40:46;;;;;;;23.13;7.95;;;8.60;99.90;;;;;;5093639;28;20177;-38
2023/05/02 02:43:23;;;;;;;26.25;7.50;;;8.40;99.90;;;;;;5094626;28;20561;-41
2023/05/02 02:46:31;;;;;;;22.48;6.15;;;8.30;99.90;;;;;;5076762;28;20554;-33
2023/05/02 02:49:21;;;;;;;26.50;6.72;;;8.30;99.90;;;;;;5031955;28;20053;-41
2023/05/02 02:51:57;;;;;;;27.02;6.68;;;8.20;99.90;;;;;;5006120;28;20483;-38
2023/05/02 02:54:32;;;;;;;25.70;8.05;;;8.10;99.90;;;;;;4995149;28;20100;-41
2023/05/02 02:57:05;;;;;;;26.60;7.75;;;8.00;99.90;;;;;;5018733;28;20180;-43
2023/05/02 02:59:37;;;;;;;24.90;7.82;;;7.90;99.90;;;;;;5031010;28;20053;-36
2023/05/02 03:02:08;;;;;;;27.52;8.10;;;7.90;99.90;;;;;;5015071;28;20119;-38
2023/05/02 03:04:38;;;;;;;29.77;7.68;;;7.80;99.90;;;;;;5034089;28;20045;-39
2023/05/02 03:07:03;;;;;;;35.65;7.78;;;7.80;99.90;;;;;;5024396;28;20065;-35
2023/05/02 03:09:41;;;;;;;27.67;7.53;;;7.80;99.90;;;;;;5031446;28;20053;-35
2023/05/02 03:12:07;;;;;;;22.33;7.00;;;7.80;99.90;;;;;;5016706;28;20566;-42
2023/05/02 03:14:33;;;;;;;24.88;6.38;;;7.80;99.90;;;;;;5033394;28;20056;-39
2023/05/02 03:16:59;;;;;;;22.30;6.22;;;7.70;99.90;;;;;;5034245;28;20120;-40
2023/05/02 03:19:25;;;;;;;23.65;6.72;;;7.70;99.90;;;;;;5028371;28;20064;-34
2023/05/02 03:21:50;;;;;;;23.70;5.78;;;7.70;99.90;;;;;;5025348;28;20048;-38
2023/05/02 03:24:16;;;;;;;21.20;6.05;;;7.80;99.90;;;;;;5035290;28;20049;-44
2023/05/02 03:26:42;;;;;;;22.33;5.65;;;7.80;99.90;;;;;;5097926;28;20039;-37
2023/05/02 03:29:07;;;;;;;19.27;5.40;;;7.80;99.90;;;;;;5096847;28;20589;-37
2023/05/02 03:31:33;;;;;;;18.98;6.00;;;7.80;99.90;;;;;;5097645;28;20048;-40
2023/05/02 03:33:58;;;;;;;18.80;5.40;;;7.80;99.90;;;;;;5095917;28;20051;-41
2023/05/02 03:36:24;;;;;;;17.23;5.95;;;7.80;99.90;;;;;;5079871;28;20054;-38
2023/05/02 03:38:50;;;;;;;19.95;5.07;;;7.80;99.90;;;;;;5097729;28;20051;-37
2023/05/02 03:41:15;;;;;;;19.77;5.15;;;7.70;99.90;;;;;;5097248;28;20546;-36
2023/05/02 03:43:41;;;;;;;20.08;5.78;;;7.70;99.90;;;;;;5096804;28;20088;-37
2023/05/02 03:46:08;;;;;;;19.67;4.72;;;7.70;99.90;;;;;;5096576;28;20128;-40
2023/05/02 03:48:34;;;;;;;17.23;4.57;;;7.70;99.90;;;;;;5097328;28;20051;-36
2023/05/02 03:51:01;;;;;;;16.83;4.60;;;7.60;99.90;;;;;;5096641;28;20055;-38
2023/05/02 03:53:28;;;;;;;17.85;4.70;;;7.60;99.90;;;;;;5096805;28;20043;-40
2023/05/02 03:55:54;;;;;;;20.02;4.30;;;7.60;99.90;;;;;;5097069;28;20370;-37
2023/05/02 03:58:20;;;;;;;14.75;4.00;;;7.60;99.90;;;;;;5096466;28;20052;-39
2023/05/02 04:00:46;;;;;;;13.05;4.07;;;7.60;99.90;;;;;;5094718;28;20047;-44
2023/05/02 04:03:12;;;;;;;14.93;4.32;;;7.50;99.90;;;;;;5096685;28;20048;-35
2023/05/02 04:05:37;;;;;;;13.13;4.35;;;7.50;99.90;;;;;;5095170;28;20051;-38
2023/05/02 04:08:03;;;;;;;16.23;4.25;;;7.50;99.90;;;;;;5096029;28;20078;-38
2023/05/02 04:10:29;;;;;;;14.40;3.85;;;7.50;99.90;;;;;;5095932;28;20052;-36
2023/05/02 04:12:55;;;;;;;15.35;4.22;;;7.50;99.90;;;;;;5096476;28;20528;-40
2023/05/02 04:15:20;;;;;;;11.15;3.38;;;7.50;99.90;;;;;;5095748;28;20074;-38
2023/05/02 04:17:46;;;;;;;19.00;3.97;;;7.40;99.90;;;;;;5096837;28;20568;-38
2023/05/02 04:20:12;;;;;;;10.38;4.13;;;7.40;99.90;;;;;;5095978;28;20058;-37
2023/05/02 04:22:40;;;;;;;13.85;3.88;;;7.40;99.90;;;;;;5096280;28;20047;-38
2023/05/02 04:25:07;;;;;;;14.98;3.55;;;7.50;99.90;;;;;;5095536;28;20061;-41
2023/05/02 04:27:32;;;;;;;21.50;4.53;;;7.50;99.90;;;;;;5094241;28;20063;-40
2023/05/02 04:29:58;;;;;;;11.48;3.78;;;7.50;99.90;;;;;;5096897;28;20537;-41
2023/05/02 04:32:24;;;;;;;12.13;3.47;;;7.50;99.90;;;;;;5096250;28;20052;-38
2023/05/02 04:34:50;;;;;;;12.07;3.15;;;7.50;99.90;;;;;;5096695;28;20620;-35
2023/05/02 04:37:15;;;;;;;11.30;3.17;;;7.50;99.90;;;;;;5096914;28;20445;-36
2023/05/02 04:39:41;;;;;;;10.38;3.00;;;7.50;99.90;;;;;;5096929;28;20039;-38
2023/05/02 04:42:07;;;;;;;10.07;2.50;;;7.60;99.90;;;;;;5096098;28;20502;-38
2023/05/02 04:44:33;;;;;;;6.88;2.42;;;7.50;99.90;;;;;;5096449;28;20047;-37
2023/05/02 04:46:58;;;;;;;11.90;2.92;;;7.50;99.90;;;;;;5096482;28;20413;-40
2023/05/02 04:49:24;;;;;;;10.18;2.95;;;7.50;99.90;;;;;;5095297;28;20088;-37
2023/05/02 04:51:51;;;;;;;12.10;3.70;;;7.50;99.90;;;;;;5095229;28;20083;-38
2023/05/02 04:54:17;;;;;;;11.88;3.42;;;7.50;99.90;;;;;;5077337;28;20059;-40
2023/05/02 04:56:42;;;;;;;11.82;2.97;;;7.50;99.90;;;;;;5096165;28;20043;-38
2023/05/02 04:59:08;;;;;;;7.20;2.55;;;7.60;99.90;;;;;;5096212;28;20048;-37
2023/05/02 05:01:34;;;;;;;9.68;2.78;;;7.60;99.90;;;;;;5095556;28;20051;-34
2023/05/02 05:04:00;;;;;;;12.40;2.95;;;7.70;99.90;;;;;;5095464;28;20070;-36
2023/05/02 05:06:25;;;;;;;10.40;2.42;;;7.80;99.90;;;;;;5096304;28;20055;-39
2023/05/02 05:08:51;;;;;;;11.32;2.65;;;7.80;99.90;;;;;;5095701;28;20461;-40
2023/05/02 05:11:17;;;;;;;7.72;2.30;;;7.90;99.90;;;;;;5095520;28;20091;-37
2023/05/02 05:13:43;;;;;;;9.70;2.67;;;8.00;99.90;;;;;;5078563;28;20110;-37
2023/05/02 05:16:08;;;;;;;10.88;2.95;;;8.00;99.90;;;;;;5095769;28;20572;-36
2023/05/02 05:18:40;;;;;;;8.27;2.60;;;8.00;99.90;;;;;;5094790;28;20043;-34
2023/05/02 05:21:09;;;;;;;8.65;2.30;;;8.00;99.90;;;;;;5093262;28;20063;-40
2023/05/02 05:23:36;;;;;;;12.82;3.03;;;8.00;99.90;;;;;;5095325;28;20051;-39
2023/05/02 05:26:12;;;;;;;11.15;2.75;;;8.10;99.90;;;;;;5110592;27;20150;-39
2023/05/02 05:28:38;;;;;;;8.05;2.50;;;8.10;99.90;;;;;;5095272;28;20055;-40
2023/05/02 05:31:09;;;;;;;13.52;3.33;;;8.20;99.90;;;;;;5076916;28;20477;-37
2023/05/02 05:33:36;;;;;;;13.75;3.28;;;8.20;99.90;;;;;;5095451;28;20147;-37
2023/05/02 05:36:06;;;;;;;11.63;3.17;;;8.20;99.90;;;;;;5095036;28;20047;-44
2023/05/02 05:38:32;;;;;;;20.95;4.57;;;8.10;99.90;;;;;;5095445;28;20058;-37
2023/05/02 05:40:58;;;;;;;13.98;3.72;;;8.00;99.90;;;;;;5093272;28;20055;-40
2023/05/02 05:43:25;;;;;;;11.18;2.95;;;8.00;99.90;;;;;;5095355;28;20043;-37
2023/05/02 05:45:54;;;;;;;12.25;4.45;;;7.90;99.90;;;;;;5095113;28;20064;-39
2023/05/02 05:48:21;;;;;;;13.25;3.20;;;7.90;99.90;;;;;;5110591;27;20197;-38
2023/05/02 05:50:47;;;;;;;11.10;3.85;;;7.80;99.90;;;;;;5094483;28;20611;-39
2023/05/02 05:53:13;;;;;;;9.88;3.75;;;7.80;99.90;;;;;;5095037;28;20194;-35
2023/05/02 05:55:39;;;;;;;10.75;3.30;;;7.70;99.90;;;;;;5094897;28;20055;-35
2023/05/02 05:58:05;;;;;;;11.20;3.15;;;7.80;99.90;;;;;;5083241;28;20412;-35
2023/05/02 06:00:34;;;;;;;11.85;3.97;;;7.80;99.90;;;;;;5095178;28;20048;-35
2023/05/02 06:03:00;;;;;;;11.55;2.85;;;7.90;99.90;;;;;;5077144;28;20921;-35
2023/05/02 06:05:26;;;;;;;13.50;3.78;;;7.90;99.90;;;;;;5095383;28;20062;-34
2023/05/02 06:07:51;;;;;;;15.27;3.55;;;8.00;99.90;;;;;;5095691;28;20043;-38
2023/05/02 06:10:17;;;;;;;10.20;3.55;;;8.00;99.90;;;;;;5094875;28;20522;-38
2023/05/02 06:12:43;;;;;;;9.20;3.78;;;8.10;99.90;;;;;;5095310;28;20055;-41
2023/05/02 06:15:09;;;;;;;13.30;3.88;;;8.10;99.90;;;;;;5095540;28;20054;-38
2023/05/02 06:17:34;;;;;;;13.43;3.15;;;8.20;99.90;;;;;;5095016;28;20509;-34
2023/05/02 06:20:00;;;;;;;9.18;2.70;;;8.20;99.90;;;;;;5094662;28;20163;-37
2023/05/02 06:22:25;;;;;;;10.77;3.53;;;8.20;99.90;;;;;;5095661;28;20052;-38
2023/05/02 06:24:51;;;;;;;12.65;4.00;;;8.30;99.90;;;;;;5094418;28;20395;-39
2023/05/02 06:27:17;;;;;;;12.63;3.40;;;8.40;99.90;;;;;;5094557;28;20445;-37
2023/05/02 06:29:42;;;;;;;14.35;3.92;;;8.50;99.90;;;;;;5095480;28;20078;-40
2023/05/02 06:32:08;;;;;;;10.60;3.03;;;8.60;99.90;;;;;;5094843;28;20183;-39
2023/05/02 06:34:34;;;;;;;12.98;3.17;;;8.70;99.90;;;;;;5094599;28;20134;-37
2023/05/02 06:37:00;;;;;;;8.52;3.40;;;8.80;99.90;;;;;;5095978;28;20039;-36
2023/05/02 06:39:26;;;;;;;13.30;3.83;;;8.90;99.90;;;;;;5098552;28;20047;-34
2023/05/02 06:41:58;;;;;;;10.13;2.75;;;9.00;99.90;;;;;;5078559;28;20078;-36
2023/05/02 06:44:24;;;;;;;8.77;2.87;;;9.00;99.90;;;;;;5098867;28;20096;-41
2023/05/02 06:46:50;;;;;;;9.43;3.00;;;9.20;99.90;;;;;;5098524;28;20075;-36
2023/05/02 06:49:16;;;;;;;12.77;4.22;;;9.30;99.90;;;;;;5099466;28;20557;-34
2023/05/02 06:51:42;;;;;;;10.20;3.20;;;9.30;99.90;;;;;;5098049;28;20054;-37
2023/05/02 06:54:07;;;;;;;11.82;3.47;;;9.40;99.90;;;;;;5098443;28;20051;-42
2023/05/02 06:56:33;;;;;;;13.48;3.22;;;9.40;99.90;;;;;;5098365;28;20048;-42
2023/05/02 06:58:59;;;;;;;9.45;2.97;;;9.60;99.90;;;;;;5098394;28;20096;-44
2023/05/02 07:01:25;;;;;;;9.25;2.78;;;9.70;99.90;;;;;;5098080;28;20047;-35
2023/05/02 07:03:51;;;;;;;6.88;2.95;;;9.80;99.90;;;;;;5086867;28;20494;-35
2023/05/02 07:06:17;;;;;;;5.97;2.63;;;10.60;99.90;;;;;;5098841;28;20051;-37
2023/05/02 07:08:43;;;;;;;8.43;2.95;;;11.80;99.90;;;;;;5098836;28;20047;-42
2023/05/02 07:11:09;;;;;;;10.70;3.70;;;12.90;99.90;;;;;;5097209;28;20055;-39
2023/05/02 07:13:34;;;;;;;14.88;3.75;;;12.30;99.90;;;;;;5097283;28;20052;-39
2023/05/02 07:16:00;;;;;;;8.80;2.90;;;12.10;99.90;;;;;;5098261;28;20040;-41
2023/05/02 07:18:26;;;;;;;8.10;2.97;;;11.80;99.90;;;;;;5098303;28;20350;-38
2023/05/02 07:20:51;;;;;;;8.02;2.90;;;11.40;99.90;;;;;;5097712;28;20043;-44
2023/05/02 07:23:17;;;;;;;13.05;3.08;;;11.00;99.90;;;;;;5099164;28;20855;-36
2023/05/02 07:25:43;;;;;;;7.65;2.72;;;10.80;99.90;;;;;;5097732;28;20054;-35
2023/05/02 07:28:08;;;;;;;6.72;3.30;;;10.70;99.90;;;;;;5098464;28;20476;-39
2023/05/02 07:30:34;;;;;;;10.02;3.55;;;10.50;99.90;;;;;;5097880;28;20210;-40
2023/05/02 07:33:00;;;;;;;13.38;3.85;;;10.30;99.90;;;;;;5098110;28;20048;-37
2023/05/02 07:35:25;;;;;;;12.82;3.55;;;10.00;99.90;;;;;;5097701;28;20043;-42
2023/05/02 07:37:51;;;;;;;10.45;3.80;;;10.00;99.90;;;;;;5097929;28;20043;-35
2023/05/02 07:40:17;;;;;;;14.50;3.80;;;9.90;99.90;;;;;;5079581;28;20114;-38
2023/05/02 07:42:43;;;;;;;12.63;4.05;;;9.70;99.90;;;;;;5095937;28;20058;-38
2023/05/02 07:45:09;;;;;;;10.35;3.63;;;9.70;99.90;;;;;;5096417;28;20413;-42
2023/05/02 07:47:35;;;;;;;9.45;3.42;;;9.80;99.90;;;;;;5095452;28;20501;-40
2023/05/02 07:50:03;;;;;;;10.70;3.58;;;9.90;99.90;;;;;;5095374;28;20295;-38
2023/05/02 07:52:29;;;;;;;14.38;4.25;;;10.30;99.90;;;;;;5096756;28;20607;-44
2023/05/02 07:54:55;;;;;;;12.27;3.28;;;10.50;99.90;;;;;;5096303;28;20039;-38
2023/05/02 07:57:21;;;;;;;8.63;3.45;;;10.70;99.90;;;;;;5096025;28;20543;-41
2023/05/02 07:59:47;;;;;;;13.93;3.70;;;11.00;99.90;;;;;;5096601;28;20056;-39
2023/05/02 08:02:12;;;;;;;12.95;4.53;;;10.80;99.90;;;;;;5097320;28;20502;-35
2023/05/02 08:04:39;;;;;;;11.95;4.35;;;10.60;99.90;;;;;;5096665;28;20047;-38
2023/05/02 08:07:05;;;;;;;14.20;3.75;;;10.40;99.90;;;;;;5078943;28;20465;-38
2023/05/02 08:09:31;;;;;;;9.75;3.38;;;10.30;99.90;;;;;;5112977;27;20465;-42
2023/05/02 08:11:57;;;;;;;12.23;3.92;;;10.50;99.90;;;;;;5096766;28;20054;-38
2023/05/02 08:14:22;;;;;;;9.68;3.42;;;10.20;99.90;;;;;;5080012;28;20040;-35
2023/05/02 08:16:48;;;;;;;8.93;3.30;;;10.30;99.90;;;;;;5079536;28;20075;-40
2023/05/02 08:19:14;;;;;;;9.82;3.05;;;10.40;99.90;;;;;;5092067;28;20493;-37
2023/05/02 08:21:41;;;;;;;15.18;3.30;;;10.40;99.90;;;;;;5077368;28;20490;-42
2023/05/02 08:24:06;;;;;;;12.60;3.28;;;10.60;99.90;;;;;;5081210;28;20661;-41
2023/05/02 08:26:32;;;;;;;14.30;3.47;;;10.70;99.90;;;;;;5080310;28;20035;-37
2023/05/02 08:28:58;;;;;;;10.32;3.28;;;10.60;99.90;;;;;;5085489;28;20046;-44
2023/05/02 08:31:24;;;;;;;10.55;2.92;;;10.50;99.90;;;;;;5081328;28;20132;-38
2023/05/02 08:33:50;;;;;;;9.27;3.20;;;10.70;99.90;;;;;;5060432;28;20130;-36
2023/05/02 08:36:17;;;;;;;10.10;2.95;;;10.60;99.90;;;;;;5087550;28;20043;-40
2023/05/02 08:38:44;;;;;;;6.10;3.00;;;10.90;99.90;;;;;;5077288;28;20139;-35
2023/05/02 08:41:10;;;;;;;5.95;2.55;;;11.00;99.90;;;;;;5082096;28;20383;-36
2023/05/02 08:43:38;;;;;;;8.70;2.53;;;11.00;99.90;;;;;;5079340;28;20055;-42
2023/05/02 08:46:08;;;;;;;9.95;3.28;;;11.00;99.90;;;;;;5088043;28;20043;-40
2023/05/02 08:48:36;;;;;;;9.57;2.30;;;11.30;99.90;;;;;;5079282;28;20422;-41
2023/05/02 08:51:03;;;;;;;12.13;3.08;;;11.20;99.90;;;;;;5095242;28;20039;-40
2023/05/02 08:53:32;;;;;;;8.88;2.65;;;11.00;99.90;;;;;;5092309;28;20078;-46
2023/05/02 08:56:00;;;;;;;10.48;2.30;;;10.80;99.90;;;;;;5092834;28;20091;-44
2023/05/02 08:58:26;;;;;;;7.72;2.63;;;11.00;99.90;;;;;;5095275;28;20074;-38
2023/05/02 09:00:54;;;;;;;6.47;2.35;;;11.00;99.90;;;;;;5093738;28;20063;-41
2023/05/02 09:03:30;;;;;;;9.52;2.50;;;11.00;99.90;;;;;;5095814;28;20043;-45
2023/05/02 09:06:05;;;;;;;7.45;2.25;;;10.90;99.90;;;;;;5096402;28;20604;-40
2023/05/02 09:08:31;;;;;;;15.55;2.42;;;11.00;99.90;;;;;;5096211;28;20481;-38
2023/05/02 09:10:57;;;;;;;5.10;2.55;;;11.00;99.90;;;;;;5095779;28;20043;-40
2023/05/02 09:13:33;;;;;;;10.38;2.70;;;11.10;99.90;;;;;;5093942;28;20058;-38
2023/05/02 09:16:01;;;;;;;12.98;2.42;;;11.20;99.90;;;;;;5088889;27;20039;-38
2023/05/02 09:18:32;;;;;;;8.80;3.10;;;11.20;99.90;;;;;;5096102;27;20432;-38
2023/05/02 09:20:59;;;;;;;8.45;3.13;;;11.20;99.90;;;;;;5098206;27;20040;-45
2023/05/02 09:23:32;;;;;;;7.97;1.92;;;11.20;99.90;;;;;;5095503;28;20109;-36
2023/05/02 09:25:59;;;;;;;6.68;2.20;;;11.40;99.90;;;;;;5096383;28;20058;-44
2023/05/02 09:28:39;;;;;;;10.25;3.67;;;11.20;99.90;;;;;;5083787;28;20122;-35
2023/05/02 09:31:11;;;;;;;7.70;1.95;;;11.30;99.90;;;;;;5094914;28;20048;-37
2023/05/02 09:33:37;;;;;;;9.63;2.15;;;11.30;99.90;;;;;;5094687;28;20480;-41
2023/05/02 09:36:06;;;;;;;9.68;2.60;;;11.50;99.90;;;;;;5096368;28;20457;-42
2023/05/02 09:38:32;;;;;;;5.82;2.78;;;11.60;99.90;;;;;;5096124;28;20794;-38
2023/05/02 09:40:59;;;;;;;6.47;2.72;;;11.40;99.90;;;;;;5096317;28;20090;-36
2023/05/02 09:43:25;;;;;;;7.10;2.20;;;11.30;99.90;;;;;;5094776;28;20489;-35
2023/05/02 09:45:57;;;;;;;6.18;1.92;;;11.40;99.90;;;;;;5083816;28;20054;-38
2023/05/02 09:48:23;;;;;;;5.35;2.13;;;11.60;99.90;;;;;;5089656;28;20059;-38
2023/05/02 09:50:49;;;;;;;7.25;2.28;;;11.70;99.90;;;;;;5102756;27;20062;-37
2023/05/02 09:53:15;;;;;;;5.53;1.70;;;11.90;99.90;;;;;;5095175;28;20384;-40
2023/05/02 09:55:41;;;;;;;5.20;1.75;;;12.20;99.90;;;;;;5095412;28;20055;-39
2023/05/02 09:58:22;;;;;;;4.07;1.75;;;12.40;99.90;;;;;;5111070;28;20055;-43
2023/05/02 10:00:50;;;;;;;4.97;1.77;;;12.50;99.70;;;;;;5091357;28;20502;-41
2023/05/02 10:03:17;;;;;;;6.30;1.85;;;12.50;99.70;;;;;;5094233;28;20047;-42
2023/05/02 10:05:44;;;;;;;6.50;1.98;;;12.00;98.80;;;;;;5105178;28;20810;-36
2023/05/02 10:08:11;;;;;;;7.15;2.25;;;12.30;99.90;;;;;;5089115;28;20143;-35
2023/05/02 10:10:39;;;;;;;5.88;2.00;;;12.00;99.90;;;;;;5118813;27;20047;-40
2023/05/02 10:13:05;;;;;;;8.07;1.70;;;11.80;99.90;;;;;;5098895;28;20361;-39
2023/05/02 10:15:32;;;;;;;4.40;1.60;;;11.90;99.90;;;;;;5098197;28;20051;-39
2023/05/02 10:18:00;;;;;;;6.53;1.50;;;12.10;99.90;;;;;;5080870;28;20062;-43
2023/05/02 10:20:33;;;;;;;5.55;1.73;;;12.50;99.90;;;;;;5098997;28;20062;-38
2023/05/02 10:23:00;;;;;;;;;;;13.00;99.90;;;;;;5099455;28;20108;-42
2023/05/02 10:25:27;;;;;;;5.97;2.20;;;13.10;99.40;;;;;;5091714;28;20219;-37
2023/05/02 10:27:56;;;;;;;4.47;1.58;;;13.10;98.80;;;;;;5099072;28;20223;-39
2023/05/02 10:30:23;;;;;;;4.25;1.90;;;13.10;98.10;;;;;;5098092;27;20079;-39
2023/05/02 10:32:51;;;;;;;3.05;1.50;;;13.10;99.90;;;;;;5099286;28;20047;-39
2023/05/02 10:35:18;;;;;;;4.03;1.33;;;13.10;99.90;;;;;;5098469;28;20127;-42
2023/05/02 10:37:44;;;;;;;9.50;1.90;;;12.90;99.80;;;;;;5106039;27;20071;-37
2023/05/02 10:40:11;;;;;;;4.95;1.92;;;13.00;99.90;;;;;;5097314;28;20058;-35
2023/05/02 10:42:39;;;;;;;6.03;1.73;;;12.90;99.90;;;;;;5097501;28;20043;-40
2023/05/02 10:45:11;;;;;;;4.35;1.95;;;12.90;99.90;;;;;;5079557;28;20056;-37
2023/05/02 10:47:36;;;;;;;7.70;2.25;;;13.20;99.90;;;;;;5097258;28;20040;-42
2023/05/02 10:50:04;;;;;;;5.28;2.05;;;13.20;99.90;;;;;;5113161;27;20486;-41
2023/05/02 10:52:40;;;;;;;5.95;1.70;;;13.50;99.90;;;;;;5097361;28;20039;-36
2023/05/02 10:55:20;;;;;;;8.45;3.17;;;13.70;99.90;;;;;;5098192;28;20050;-43
2023/05/02 10:57:57;;;;;;;6.40;1.95;;;13.70;99.90;;;;;;5098450;28;20044;-39
2023/05/02 11:00:24;;;;;;;10.32;4.07;;;13.70;99.30;;;;;;5098474;28;20501;-36
2023/05/02 11:02:50;;;;;;;6.72;1.80;;;13.70;99.90;;;;;;5098889;28;20050;-41
2023/05/02 11:05:16;;;;;;;6.32;1.55;;;14.20;99.90;;;;;;5080865;28;20051;-38
2023/05/02 11:07:42;;;;;;;5.68;1.45;;;14.40;99.90;;;;;;5113976;27;20490;-37
2023/05/02 11:10:16;;;;;;;3.33;1.40;;;14.50;98.20;;;;;;5098522;28;20111;-38
2023/05/02 11:12:56;;;;;;;4.50;1.40;;;14.30;97.60;;;;;;5097932;28;20047;-37
2023/05/02 11:15:28;;;;;;;4.18;1.75;;;13.90;98.60;;;;;;5097927;28;20047;-38
2023/05/02 11:18:10;;;;;;;5.45;1.88;;;13.60;99.10;;;;;;5098132;28;20048;-39
2023/05/02 11:20:38;;;;;;;4.40;1.70;;;13.30;99.90;;;;;;5097863;28;20052;-43
2023/05/02 11:23:15;;;;;;;7.07;2.05;;;13.20;99.90;;;;;;5098065;28;20472;-35
2023/05/02 11:25:45;;;;;;;7.38;2.05;;;13.20;99.90;;;;;;5097697;28;20051;-42
2023/05/02 11:28:33;;;;;;;6.63;2.40;;;13.20;99.90;;;;;;5096454;28;20094;-38
2023/05/02 11:30:59;;;;;;;4.35;2.00;;;13.20;99.90;;;;;;5095693;28;20047;-40
2023/05/02 11:33:27;;;;;;;6.95;1.98;;;13.20;99.90;;;;;;5097121;28;20101;-37
2023/05/02 11:35:52;;;;;;;8.15;2.40;;;13.30;99.90;;;;;;5112467;27;20054;-37
2023/05/02 11:38:20;;;;;;;8.15;3.15;;;13.20;99.90;;;;;;5096891;28;20035;-38
2023/05/02 11:40:50;;;;;;;6.20;2.05;;;13.40;99.90;;;;;;5096127;28;20521;-38
2023/05/02 11:43:18;;;;;;;7.85;3.03;;;13.30;99.90;;;;;;5079699;27;20048;-35
2023/05/02 11:45:44;;;;;;;4.05;1.90;;;13.20;99.90;;;;;;5108492;27;20517;-39
2023/05/02 11:48:16;;;;;;;7.05;2.08;;;13.20;99.90;;;;;;5098021;28;20405;-36
2023/05/02 11:50:46;;;;;;;4.18;1.90;;;13.00;99.90;;;;;;5097716;28;20054;-38
2023/05/02 11:53:21;;;;;;;7.82;2.00;;;13.20;99.90;;;;;;5094513;28;20449;-40
2023/05/02 11:55:50;;;;;;;6.10;1.92;;;13.00;99.90;;;;;;5097603;28;20139;-37
2023/05/02 11:58:18;;;;;;;4.93;2.00;;;13.10;99.90;;;;;;5097345;28;20054;-35
2023/05/02 12:00:45;;;;;;;4.57;1.80;;;13.20;99.90;;;;;;5113093;27;20051;-36
2023/05/02 12:03:28;;;;;;;6.25;1.85;;;13.30;99.90;;;;;;5097174;28;20476;-38
2023/05/02 12:05:55;;;;;;;5.43;1.95;;;13.40;99.90;;;;;;5097724;28;20051;-38
2023/05/02 12:08:23;;;;;;;3.80;1.80;;;13.30;99.90;;;;;;5096586;28;20043;-39
2023/05/02 12:10:51;;;;;;;6.10;2.20;;;13.40;99.90;;;;;;5096282;28;20055;-36
2023/05/02 12:13:18;;;;;;;5.07;2.25;;;13.40;99.90;;;;;;5095993;28;20124;-44
2023/05/02 12:15:44;;;;;;;4.53;1.85;;;13.60;99.90;;;;;;5095071;28;20043;-43
2023/05/02 12:18:10;;;;;;;3.58;2.17;;;13.70;99.90;;;;;;5112713;27;20046;-35
2023/05/02 12:20:37;;;;;;;5.97;1.92;;;13.70;99.90;;;;;;5111609;27;20417;-40
2023/05/02 12:23:05;;;;;;;6.72;3.30;;;13.80;99.90;;;;;;5096265;28;20386;-40
2023/05/02 12:25:35;;;;;;;6.60;2.63;;;13.80;99.90;;;;;;5085042;28;20055;-37
2023/05/02 12:28:02;;;;;;;9.23;2.90;;;13.70;99.90;;;;;;5070099;28;20067;-37
2023/05/02 12:30:29;;;;;;;6.13;2.10;;;13.50;99.90;;;;;;5096185;28;20466;-42
2023/05/02 12:33:02;;;;;;;8.55;2.38;;;13.50;99.90;;;;;;5096789;28;20051;-40
2023/05/02 12:35:29;;;;;;;5.53;2.33;;;13.40;99.90;;;;;;5096247;28;20044;-40
2023/05/02 12:38:17;;;;;;;5.50;1.77;;;13.40;99.90;;;;;;5096467;28;20047;-36
2023/05/02 12:40:51;;;;;;;2.53;1.48;;;13.40;99.90;;;;;;5096281;28;20047;-34
2023/05/02 12:43:17;;;;;;;4.45;1.80;;;13.50;99.90;;;;;;5082957;28;20051;-35
2023/05/02 12:45:43;;;;;;;4.07;1.60;;;13.50;99.90;;;;;;5111816;27;20058;-42
2023/05/02 12:48:19;;;;;;;4.63;1.80;;;13.30;99.90;;;;;;5096997;28;20052;-38
2023/05/02 12:50:45;;;;;;;4.50;1.85;;;13.50;99.90;;;;;;5095366;28;20051;-40
2023/05/02 12:53:11;;;;;;;5.70;1.65;;;13.50;99.90;;;;;;5091622;28;20402;-35